createdAt,value
2023-11-10T00:01:09.681Z,99561.22
2023-11-10T00:03:37.399Z,99559.59
2023-11-10T00:06:04.913Z,99560.56
2023-11-10T00:08:32.837Z,99561.34
2023-11-10T00:11:00.381Z,99562.66
2023-11-10T00:13:29.334Z,99567.28
2023-11-10T00:15:56.634Z,99576.00
2023-11-10T00:18:24.233Z,99567.50
2023-11-10T00:20:51.773Z,99573.41
2023-11-10T00:23:19.292Z,99576.63
2023-11-10T00:25:46.813Z,99574.03
2023-11-10T00:28:14.047Z,99576.00
2023-11-10T00:30:41.320Z,99572.03
2023-11-10T00:33:08.992Z,99576.72
2023-11-10T00:35:36.323Z,99571.31
2023-11-10T00:38:04.885Z,99573.63
2023-11-10T00:40:32.484Z,99577.31
2023-11-10T00:42:59.760Z,99568.38
2023-11-10T00:45:27.058Z,99562.94
2023-11-10T00:47:54.689Z,99556.31
2023-11-10T00:50:22.315Z,99550.06
2023-11-10T00:52:49.562Z,99547.62
2023-11-10T00:55:17.763Z,99548.34
2023-11-10T00:57:45.013Z,99549.06
2023-11-10T01:02:40.504Z,99552.66
2023-11-10T01:05:08.591Z,99551.16
2023-11-10T01:07:36.185Z,99535.63
2023-11-10T01:10:03.820Z,99529.97
2023-11-10T01:12:31.379Z,99537.44
2023-11-10T01:14:58.992Z,99530.69
2023-11-10T01:17:26.919Z,99532.50
2023-11-10T01:19:54.526Z,99536.31
2023-11-10T01:22:21.830Z,99530.19
2023-11-10T01:24:49.431Z,99521.03
2023-11-10T01:27:16.799Z,99515.84
2023-11-10T01:29:44.069Z,99517.78
2023-11-10T01:32:12.095Z,99510.16
2023-11-10T01:34:39.766Z,99508.41
2023-11-10T01:37:07.537Z,99509.53
2023-11-10T01:39:35.139Z,99502.09
2023-11-10T01:42:06.279Z,99493.44
2023-11-10T01:44:35.121Z,99488.09
2023-11-10T01:47:04.925Z,99480.78
2023-11-10T01:49:32.263Z,99482.37
2023-11-10T01:51:59.511Z,99486.62
2023-11-10T01:54:29.165Z,99485.53
2023-11-10T01:56:56.492Z,99488.84
2023-11-10T01:59:24.885Z,99481.56
2023-11-10T02:01:52.810Z,99483.66
2023-11-10T02:04:20.806Z,99487.31
2023-11-10T02:06:48.509Z,99484.03
2023-11-10T02:09:17.048Z,99486.03
2023-11-10T02:11:45.177Z,99478.62
2023-11-10T02:14:13.314Z,99470.84
2023-11-10T02:16:40.888Z,99480.75
2023-11-10T02:19:09.776Z,99482.72
2023-11-10T02:21:37.305Z,99477.75
2023-11-10T02:24:09.039Z,99466.87
2023-11-10T02:26:36.502Z,99467.31
2023-11-10T02:29:04.053Z,99461.56
2023-11-10T02:31:33.120Z,99463.16
2023-11-10T02:34:00.440Z,99458.66
2023-11-10T02:36:30.313Z,99460.53
2023-11-10T02:38:57.882Z,99463.84
2023-11-10T02:41:27.065Z,99459.97
2023-11-10T02:43:54.614Z,99454.06
2023-11-10T02:46:21.933Z,99464.28
2023-11-10T02:48:49.541Z,99461.75
2023-11-10T02:51:17.116Z,99457.75
2023-11-10T02:53:44.379Z,99456.16
2023-11-10T02:56:11.639Z,99457.88
2023-11-10T02:58:39.276Z,99454.81
2023-11-10T03:01:06.678Z,99454.34
2023-11-10T03:03:33.999Z,99456.22
2023-11-10T03:06:01.596Z,99447.03
2023-11-10T03:08:28.896Z,99445.69
2023-11-10T03:10:58.378Z,99439.81
2023-11-10T03:13:26.145Z,99432.62
2023-11-10T03:15:53.425Z,99440.47
2023-11-10T03:18:21.602Z,99443.75
2023-11-10T03:20:49.221Z,99438.44
2023-11-10T03:23:16.935Z,99450.25
2023-11-10T03:25:44.199Z,99440.47
2023-11-10T03:28:12.394Z,99439.03
2023-11-10T03:30:39.739Z,99440.47
2023-11-10T03:33:07.964Z,99430.09
2023-11-10T03:35:35.478Z,99431.03
2023-11-10T03:38:02.709Z,99434.12
2023-11-10T03:40:30.010Z,99433.41
2023-11-10T03:43:00.504Z,99433.19
2023-11-10T03:45:27.830Z,99436.56
2023-11-10T03:47:55.170Z,99432.69
2023-11-10T03:50:22.714Z,99430.69
2023-11-10T03:52:49.989Z,99419.97
2023-11-10T03:55:17.242Z,99415.50
2023-11-10T03:57:47.107Z,99411.03
2023-11-10T04:00:14.523Z,99410.78
2023-11-10T04:02:42.115Z,99408.72
2023-11-10T04:05:09.486Z,99403.53
2023-11-10T04:07:36.827Z,99399.94
2023-11-10T04:10:05.198Z,99398.78
2023-11-10T04:12:33.543Z,99395.75
2023-11-10T04:15:00.789Z,99395.59
2023-11-10T04:17:28.349Z,99399.37
2023-11-10T04:19:55.631Z,99393.03
2023-11-10T04:22:22.863Z,99390.94
2023-11-10T04:25:09.148Z,99386.91
2023-11-10T04:27:37.249Z,99386.53
2023-11-10T04:30:05.095Z,99390.28
2023-11-10T04:32:45.166Z,99376.19
2023-11-10T04:35:15.620Z,99377.81
2023-11-10T04:37:42.952Z,99372.88
2023-11-10T04:40:13.132Z,99377.81
2023-11-10T04:42:43.136Z,99379.41
2023-11-10T04:45:13.912Z,99372.88
2023-11-10T04:47:42.246Z,99370.88
2023-11-10T04:50:09.860Z,99366.91
2023-11-10T04:52:37.462Z,99366.06
2023-11-10T04:55:05.221Z,99361.22
2023-11-10T04:57:32.479Z,99360.66
2023-11-10T05:00:02.108Z,99357.91
2023-11-10T05:02:32.538Z,99352.47
2023-11-10T05:05:01.358Z,99352.75
2023-11-10T05:07:28.737Z,99350.16
2023-11-10T05:09:56.340Z,99352.06
2023-11-10T05:12:23.948Z,99347.47
2023-11-10T05:14:51.554Z,99350.53
2023-11-10T05:17:19.111Z,99348.78
2023-11-10T05:19:47.285Z,99348.16
2023-11-10T05:22:14.488Z,99337.56
2023-11-10T05:24:44.809Z,99334.25
2023-11-10T05:27:12.226Z,99347.06
2023-11-10T05:29:39.477Z,99344.97
2023-11-10T05:32:07.153Z,99340.66
2023-11-10T05:34:34.443Z,99343.59
2023-11-10T05:37:02.681Z,99346.31
2023-11-10T05:39:31.704Z,99346.28
2023-11-10T05:41:59.178Z,99343.22
2023-11-10T05:44:26.467Z,99347.66
2023-11-10T05:46:54.028Z,99341.47
2023-11-10T05:49:21.307Z,99345.87
2023-11-10T05:51:49.685Z,99346.75
2023-11-10T05:54:17.625Z,99350.06
2023-11-10T05:56:46.654Z,99349.44
2023-11-10T05:59:13.900Z,99342.88
2023-11-10T06:01:41.465Z,99348.62
2023-11-10T06:04:19.235Z,99352.53
2023-11-10T06:06:49.475Z,99355.69
2023-11-10T06:09:23.922Z,99353.94
2023-11-10T06:11:55.617Z,99356.19
2023-11-10T06:14:24.405Z,99351.16
2023-11-10T06:16:52.210Z,99357.06
2023-11-10T06:19:19.718Z,99357.44
2023-11-10T06:21:47.279Z,99355.19
2023-11-10T06:24:15.059Z,99357.00
2023-11-10T06:26:42.357Z,99351.06
2023-11-10T06:29:09.994Z,99352.56
2023-11-10T06:31:37.307Z,99347.88
2023-11-10T06:34:06.195Z,99346.19
2023-11-10T06:36:33.949Z,99351.81
2023-11-10T06:39:03.036Z,99349.00
2023-11-10T06:41:30.285Z,99343.38
2023-11-10T06:43:58.010Z,99345.41
2023-11-10T06:46:26.178Z,99342.47
2023-11-10T06:48:54.275Z,99340.94
2023-11-10T06:51:22.511Z,99350.88
2023-11-10T06:53:49.774Z,99346.63
2023-11-10T06:56:17.045Z,99354.63
2023-11-10T06:58:44.619Z,99360.66
2023-11-10T07:01:12.050Z,99362.25
2023-11-10T07:03:39.470Z,99370.97
2023-11-10T07:06:08.354Z,99370.97
2023-11-10T07:08:36.293Z,99370.31
2023-11-10T07:11:04.856Z,99374.75
2023-11-10T07:13:32.431Z,99361.88
2023-11-10T07:16:00.507Z,99361.00
2023-11-10T07:18:29.283Z,99368.22
2023-11-10T07:20:57.045Z,99372.03
2023-11-10T07:23:24.413Z,99360.41
2023-11-10T07:25:54.578Z,99362.81
2023-11-10T07:28:22.154Z,99370.97
2023-11-10T07:30:50.566Z,99364.25
2023-11-10T07:33:17.898Z,99354.00
2023-11-10T07:35:45.472Z,99357.09
2023-11-10T07:38:12.791Z,99351.78
2023-11-10T07:40:40.046Z,99359.19
2023-11-10T07:43:07.693Z,99349.66
2023-11-10T07:45:36.596Z,99344.94
2023-11-10T07:48:04.259Z,99342.94
2023-11-10T07:50:31.781Z,99345.41
2023-11-10T07:52:59.379Z,99352.84
2023-11-10T07:55:28.961Z,99337.87
2023-11-10T07:57:56.640Z,99336.94
2023-11-10T08:00:24.339Z,99345.13
2023-11-10T08:02:54.317Z,99338.03
2023-11-10T08:05:22.403Z,99334.12
2023-11-10T08:07:54.404Z,99321.47
2023-11-10T08:10:22.271Z,99322.22
2023-11-10T08:12:50.721Z,99318.00
2023-11-10T08:15:18.418Z,99321.06
2023-11-10T08:17:46.102Z,99313.13
2023-11-10T08:20:13.366Z,99316.94
2023-11-10T08:22:40.893Z,99313.47
2023-11-10T08:25:13.216Z,99305.22
2023-11-10T08:27:40.898Z,99310.50
2023-11-10T08:30:12.867Z,99308.75
2023-11-10T08:32:41.983Z,99312.16
2023-11-10T08:35:10.475Z,99321.50
2023-11-10T08:37:38.959Z,99325.31
2023-11-10T08:40:06.936Z,99318.53
2023-11-10T08:42:34.906Z,99308.28
2023-11-10T08:45:02.221Z,99303.19
2023-11-10T08:47:30.267Z,99311.22
2023-11-10T08:49:57.838Z,99293.94
2023-11-10T08:52:26.157Z,99300.28
2023-11-10T08:54:55.040Z,99297.72
2023-11-10T08:57:23.114Z,99293.41
2023-11-10T08:59:50.426Z,99295.25
2023-11-10T09:02:17.667Z,99304.22
2023-11-10T09:04:45.765Z,99295.13
2023-11-10T09:07:13.384Z,99294.00
2023-11-10T09:09:40.926Z,99294.78
2023-11-10T09:12:08.466Z,99292.56
2023-11-10T09:14:36.063Z,99282.75
2023-11-10T09:17:04.724Z,99298.00
2023-11-10T09:19:32.890Z,99285.53
2023-11-10T09:22:00.520Z,99286.88
2023-11-10T09:24:28.064Z,99289.66
2023-11-10T09:26:58.059Z,99283.78
2023-11-10T09:29:25.322Z,99280.88
2023-11-10T09:31:52.800Z,99290.97
2023-11-10T09:34:20.336Z,99283.69
2023-11-10T09:36:47.709Z,99281.47
2023-11-10T09:39:16.440Z,99272.72
2023-11-10T09:41:44.991Z,99271.19
2023-11-10T09:44:13.449Z,99256.22
2023-11-10T09:46:41.052Z,99256.53
2023-11-10T09:49:09.142Z,99245.97
2023-11-10T09:51:36.444Z,99247.97
2023-11-10T09:54:04.639Z,99245.38
2023-11-10T09:56:36.799Z,99237.38
2023-11-10T09:59:04.363Z,99231.81
2023-11-10T10:01:31.952Z,99233.28
2023-11-10T10:03:59.646Z,99222.44
2023-11-10T10:06:27.527Z,99223.78
2023-11-10T10:08:56.091Z,99213.75
2023-11-10T10:11:23.767Z,99211.09
2023-11-10T10:13:51.402Z,99213.75
2023-11-10T10:16:19.033Z,99194.69
2023-11-10T10:18:47.162Z,99189.19
2023-11-10T10:21:14.459Z,99177.53
2023-11-10T10:23:41.969Z,99170.84
2023-11-10T10:26:11.484Z,99172.53
2023-11-10T10:28:38.998Z,99179.13
2023-11-10T10:31:09.409Z,99162.56
2023-11-10T10:33:37.192Z,99161.47
2023-11-10T10:36:05.705Z,99152.84
2023-11-10T10:38:33.545Z,99160.34
2023-11-10T10:41:03.199Z,99152.34
2023-11-10T10:43:33.484Z,99152.63
2023-11-10T10:46:08.451Z,99149.22
2023-11-10T10:48:38.877Z,99149.91
2023-11-10T10:51:07.109Z,99143.06
2023-11-10T10:53:35.247Z,99136.03
2023-11-10T10:56:03.044Z,99126.97
2023-11-10T10:58:30.477Z,99124.03
2023-11-10T11:00:59.789Z,99117.31
2023-11-10T11:03:27.379Z,99100.97
2023-11-10T11:06:16.008Z,99092.38
2023-11-10T11:08:46.825Z,99089.41
2023-11-10T11:11:20.275Z,99082.41
2023-11-10T11:13:57.445Z,99081.75
2023-11-10T11:16:29.009Z,99075.84
2023-11-10T11:19:10.633Z,99074.03
2023-11-10T11:21:38.435Z,99069.56
2023-11-10T11:24:08.091Z,99064.53
2023-11-10T11:26:35.431Z,99058.41
2023-11-10T11:29:07.944Z,99054.81
2023-11-10T11:31:48.527Z,99053.69
2023-11-10T11:34:20.283Z,99048.63
2023-11-10T11:36:49.111Z,99046.13
2023-11-10T11:39:17.755Z,99045.12
2023-11-10T11:41:51.560Z,99033.22
2023-11-10T11:44:27.529Z,99030.47
2023-11-10T11:46:56.353Z,99037.47
2023-11-10T11:49:24.037Z,99027.78
2023-11-10T11:51:51.323Z,99026.81
2023-11-10T11:54:18.752Z,99019.81
2023-11-10T11:56:46.368Z,99017.97
2023-11-10T11:59:13.944Z,99023.56
2023-11-10T12:01:41.287Z,99023.28
2023-11-10T12:04:09.159Z,99027.91
2023-11-10T12:06:37.157Z,99031.19
2023-11-10T12:09:05.082Z,99021.59
2023-11-10T12:11:32.908Z,99024.31
2023-11-10T12:14:01.051Z,99020.81
2023-11-10T12:19:04.934Z,99009.56
2023-11-10T12:21:32.659Z,99000.44
2023-11-10T12:24:06.453Z,98999.66
2023-11-10T12:26:38.509Z,98999.09
2023-11-10T12:29:06.359Z,98991.34
2023-11-10T12:31:34.335Z,98996.38
2023-11-10T12:34:02.246Z,98998.38
2023-11-10T12:36:36.761Z,98998.25
2023-11-10T12:39:10.741Z,98991.72
2023-11-10T12:41:38.373Z,98992.75
2023-11-10T12:44:06.371Z,98992.88
2023-11-10T12:46:33.821Z,98986.78
2023-11-10T12:49:02.306Z,98991.56
2023-11-10T12:51:31.876Z,98979.06
2023-11-10T12:54:09.714Z,98990.06
2023-11-10T12:56:37.944Z,98979.31
2023-11-10T12:59:07.432Z,98973.44
2023-11-10T13:01:34.965Z,98978.88
2023-11-10T13:04:04.357Z,98980.56
2023-11-10T13:06:32.342Z,98970.91
2023-11-10T13:09:00.127Z,98973.84
2023-11-10T13:11:30.561Z,98973.59
2023-11-10T13:13:58.688Z,98975.13
2023-11-10T13:16:26.060Z,98974.56
2023-11-10T13:18:54.021Z,98965.03
2023-11-10T13:21:21.362Z,98972.87
2023-11-10T13:23:50.247Z,98972.03
2023-11-10T13:26:23.140Z,98965.88
2023-11-10T13:28:52.471Z,98963.56
2023-11-10T13:31:27.369Z,98960.00
2023-11-10T13:33:56.129Z,98949.16
2023-11-10T13:36:23.669Z,98951.13
2023-11-10T13:38:51.613Z,98936.25
2023-11-10T13:41:19.031Z,98942.28
2023-11-10T13:43:46.568Z,98942.22
2023-11-10T13:46:15.754Z,98937.25
2023-11-10T13:48:47.177Z,98931.03
2023-11-10T13:51:15.554Z,98931.09
2023-11-10T13:53:43.092Z,98930.19
2023-11-10T13:56:10.808Z,98930.31
2023-11-10T13:58:38.520Z,98928.34
2023-11-10T14:01:09.267Z,98921.47
2023-11-10T14:03:38.792Z,98920.53
2023-11-10T14:06:10.628Z,98919.50
2023-11-10T14:08:41.479Z,98917.56
2023-11-10T14:11:09.872Z,98909.41
2023-11-10T14:13:37.505Z,98906.88
2023-11-10T14:16:11.196Z,98902.19
2023-11-10T14:18:40.076Z,98904.88
2023-11-10T14:21:09.611Z,98902.41
2023-11-10T14:23:36.947Z,98897.28
2023-11-10T14:26:07.715Z,98895.91
2023-11-10T14:28:36.104Z,98886.38
2023-11-10T14:31:03.693Z,98885.69
2023-11-10T14:33:31.208Z,98884.56
2023-11-10T14:36:02.970Z,98886.41
2023-11-10T14:38:38.892Z,98875.25
2023-11-10T14:41:12.559Z,98874.94
2023-11-10T14:43:40.019Z,98876.50
2023-11-10T14:46:09.798Z,98869.84
2023-11-10T14:48:47.654Z,98877.47
2023-11-10T14:51:26.876Z,98870.69
2023-11-10T14:53:54.706Z,98863.47
2023-11-10T14:56:22.091Z,98866.34
2023-11-10T14:58:49.716Z,98867.97
2023-11-10T15:01:20.510Z,98864.31
2023-11-10T15:03:49.641Z,98863.78
2023-11-10T15:06:19.982Z,98858.06
2023-11-10T15:08:47.776Z,98864.84
2023-11-10T15:11:16.024Z,98863.25
2023-11-10T15:13:43.858Z,98859.56
2023-11-10T15:16:11.925Z,98852.94
2023-11-10T15:18:40.299Z,98859.28
2023-11-10T15:21:08.134Z,98853.09
2023-11-10T15:23:36.646Z,98854.88
2023-11-10T15:26:04.311Z,98858.28
2023-11-10T15:28:35.334Z,98858.28
2023-11-10T15:31:06.762Z,98855.38
2023-11-10T15:33:36.252Z,98855.53
2023-11-10T15:36:04.568Z,98854.78
2023-11-10T15:38:32.426Z,98859.84
2023-11-10T15:41:01.635Z,98856.28
2023-11-10T15:43:29.321Z,98859.63
2023-11-10T15:45:58.617Z,98849.38
2023-11-10T15:48:36.980Z,98851.84
2023-11-10T15:51:08.045Z,98853.84
2023-11-10T15:53:36.272Z,98847.09
2023-11-10T15:56:03.624Z,98851.06
2023-11-10T15:58:31.190Z,98847.91
2023-11-10T16:00:58.856Z,98848.94
2023-11-10T16:03:26.848Z,98849.25
2023-11-10T16:05:56.149Z,98856.13
2023-11-10T16:08:23.921Z,98857.13
2023-11-10T16:10:52.171Z,98848.56
2023-11-10T16:13:19.405Z,98854.56
2023-11-10T16:15:46.648Z,98852.56
2023-11-10T16:18:14.886Z,98854.06
2023-11-10T16:20:42.135Z,98850.81
2023-11-10T16:23:09.394Z,98853.53
2023-11-10T16:25:37.357Z,98849.13
2023-11-10T16:28:05.764Z,98846.53
2023-11-10T16:30:33.742Z,98848.22
2023-11-10T16:33:01.603Z,98851.88
2023-11-10T16:35:29.769Z,98856.00
2023-11-10T16:37:57.313Z,98854.38
2023-11-10T16:40:25.230Z,98851.03
2023-11-10T16:42:53.303Z,98852.16
2023-11-10T16:45:21.379Z,98855.69
2023-11-10T16:47:49.632Z,98853.59
2023-11-10T16:50:17.162Z,98852.22
2023-11-10T16:52:45.318Z,98856.59
2023-11-10T16:55:12.980Z,98857.63
2023-11-10T16:57:40.514Z,98852.34
2023-11-10T17:00:14.965Z,98852.34
2023-11-10T17:02:46.261Z,98848.72
2023-11-10T17:05:23.641Z,98850.50
2023-11-10T17:07:51.479Z,98856.03
2023-11-10T17:10:19.246Z,98848.81
2023-11-10T17:12:46.731Z,98848.72
2023-11-10T17:15:14.448Z,98853.19
2023-11-10T17:17:43.582Z,98851.56
2023-11-10T17:20:11.854Z,98842.53
2023-11-10T17:22:39.693Z,98849.63
2023-11-10T17:25:07.492Z,98847.97
2023-11-10T17:27:35.626Z,98845.69
2023-11-10T17:30:03.601Z,98844.00
2023-11-10T17:32:31.934Z,98843.53
2023-11-10T17:34:59.864Z,98845.09
2023-11-10T17:37:28.246Z,98843.06
2023-11-10T17:39:55.622Z,98837.19
2023-11-10T17:42:23.812Z,98835.25
2023-11-10T17:44:51.589Z,98836.25
2023-11-10T17:47:19.611Z,98837.03
2023-11-10T17:49:48.165Z,98836.44
2023-11-10T17:52:15.900Z,98841.59
2023-11-10T17:54:43.226Z,98825.81
2023-11-10T17:57:10.916Z,98828.97
2023-11-10T17:59:38.521Z,98836.44
2023-11-10T18:02:07.309Z,98832.94
2023-11-10T18:04:37.251Z,98825.88
2023-11-10T18:07:12.942Z,98824.94
2023-11-10T18:09:41.340Z,98830.91
2023-11-10T18:12:10.267Z,98823.16
2023-11-10T18:14:39.088Z,98811.97
2023-11-10T18:17:07.871Z,98805.22
2023-11-10T18:19:35.598Z,98808.34
2023-11-10T18:22:04.642Z,98800.81
2023-11-10T18:24:34.091Z,98807.84
2023-11-10T18:27:04.535Z,98794.63
2023-11-10T18:29:36.372Z,98789.25
2023-11-10T18:32:05.595Z,98791.19
2023-11-10T18:34:34.531Z,98785.16
2023-11-10T18:37:03.299Z,98791.25
2023-11-10T18:39:32.092Z,98784.50
2023-11-10T18:42:01.354Z,98787.03
2023-11-10T18:44:30.137Z,98782.63
2023-11-10T18:46:58.564Z,98772.84
2023-11-10T18:49:30.958Z,98778.91
2023-11-10T18:52:00.800Z,98770.16
2023-11-10T18:54:31.769Z,98774.41
2023-11-10T18:57:02.745Z,98771.88
2023-11-10T18:59:32.932Z,98773.66
2023-11-10T19:02:01.733Z,98762.50
2023-11-10T19:04:30.704Z,98764.06
2023-11-10T19:07:00.076Z,98754.47
2023-11-10T19:09:29.292Z,98745.88
2023-11-10T19:11:58.172Z,98742.47
2023-11-10T19:14:28.647Z,98735.97
2023-11-10T19:16:58.371Z,98737.09
2023-11-10T19:19:28.565Z,98731.88
2023-11-10T19:21:58.566Z,98731.41
2023-11-10T19:24:27.696Z,98744.97
2023-11-10T19:26:56.628Z,98740.94
2023-11-10T19:29:26.000Z,98730.31
2023-11-10T19:31:57.452Z,98721.03
2023-11-10T19:34:26.379Z,98726.19
2023-11-10T19:36:58.710Z,98722.00
2023-11-10T19:39:28.191Z,98717.28
2023-11-10T19:42:00.499Z,98718.91
2023-11-10T19:44:29.704Z,98715.41
2023-11-10T19:46:58.761Z,98713.34
2023-11-10T19:49:27.340Z,98715.53
2023-11-10T19:57:00.003Z,98709.44
2023-11-10T19:59:29.815Z,98700.97
2023-11-10T20:01:59.128Z,98696.94
2023-11-10T20:04:28.765Z,98688.22
2023-11-10T20:06:57.848Z,98697.03
2023-11-10T20:09:29.117Z,98689.06
2023-11-10T20:12:04.641Z,98688.88
2023-11-10T20:14:33.745Z,98688.81
2023-11-10T20:17:03.292Z,98679.53
2023-11-10T20:19:35.361Z,98679.34
2023-11-10T20:22:05.971Z,98680.03
2023-11-10T20:24:36.071Z,98676.31
2023-11-10T20:27:06.877Z,98676.28
2023-11-10T20:29:36.064Z,98671.38
2023-11-10T20:32:07.797Z,98673.97
2023-11-10T20:34:39.115Z,98670.13
2023-11-10T20:37:09.123Z,98659.53
2023-11-10T20:39:38.702Z,98666.87
2023-11-10T20:42:08.602Z,98671.50
2023-11-10T20:44:38.771Z,98664.91
2023-11-10T20:47:07.812Z,98666.38
2023-11-10T20:49:37.028Z,98665.97
2023-11-10T20:52:05.863Z,98662.06
2023-11-10T20:54:35.680Z,98651.22
2023-11-10T20:57:04.728Z,98651.44
2023-11-10T20:59:33.679Z,98657.81
2023-11-10T21:02:02.844Z,98655.97
2023-11-10T21:04:30.128Z,98650.06
2023-11-10T21:06:58.349Z,98653.34
2023-11-10T21:09:27.330Z,98648.22
2023-11-10T21:11:55.235Z,98641.88
2023-11-10T21:14:23.681Z,98636.09
2023-11-10T21:16:51.366Z,98638.72
2023-11-10T21:19:18.743Z,98642.13
2023-11-10T21:21:47.265Z,98645.44
2023-11-10T21:24:15.696Z,98644.87
2023-11-10T21:26:46.686Z,98640.38
2023-11-10T21:29:13.952Z,98644.78
2023-11-10T21:31:42.076Z,98640.47
2023-11-10T21:34:09.629Z,98648.28
2023-11-10T21:36:38.868Z,98641.50
2023-11-10T21:39:12.310Z,98633.75
2023-11-10T21:41:39.893Z,98635.25
2023-11-10T21:44:11.238Z,98631.34
2023-11-10T21:46:38.904Z,98631.09
2023-11-10T21:49:06.242Z,98631.34
2023-11-10T21:51:35.148Z,98627.72
2023-11-10T21:54:02.916Z,98627.94
2023-11-10T21:56:30.393Z,98626.25
2023-11-10T21:58:57.903Z,98628.03
2023-11-10T22:01:25.539Z,98622.91
2023-11-10T22:03:53.649Z,98624.34
2023-11-10T22:06:21.037Z,98622.88
2023-11-10T22:08:48.317Z,98620.38
2023-11-10T22:11:15.860Z,98617.03
2023-11-10T22:13:43.452Z,98623.03
2023-11-10T22:16:10.722Z,98614.47
2023-11-10T22:18:38.875Z,98617.59
2023-11-10T22:21:06.202Z,98616.88
2023-11-10T22:23:33.525Z,98618.56
2023-11-10T22:26:02.858Z,98617.94
2023-11-10T22:28:30.614Z,98606.63
2023-11-10T22:30:58.089Z,98611.06
2023-11-10T22:33:25.812Z,98609.09
2023-11-10T22:35:53.185Z,98607.53
2023-11-10T22:38:20.803Z,98605.91
2023-11-10T22:40:51.797Z,98605.87
2023-11-10T22:43:19.372Z,98596.66
2023-11-10T22:45:46.997Z,98610.38
2023-11-10T22:48:14.933Z,98608.47
2023-11-10T22:50:42.315Z,98596.53
2023-11-10T22:53:09.815Z,98586.72
2023-11-10T22:55:37.399Z,98583.37
2023-11-10T22:58:05.433Z,98588.38
2023-11-10T23:00:36.427Z,98580.50
2023-11-10T23:03:05.533Z,98577.28
2023-11-10T23:05:33.361Z,98579.78
2023-11-10T23:08:00.834Z,98581.47
2023-11-10T23:10:28.312Z,98585.06
2023-11-10T23:12:59.427Z,98579.91
2023-11-10T23:15:27.725Z,98587.56
2023-11-10T23:17:57.775Z,98584.97
2023-11-10T23:20:32.932Z,98588.50
2023-11-10T23:23:03.395Z,98579.88
2023-11-10T23:25:31.089Z,98580.53
2023-11-10T23:27:58.458Z,98582.44
2023-11-10T23:30:26.167Z,98582.22
2023-11-10T23:32:53.624Z,98591.72
2023-11-10T23:35:21.147Z,98595.22
2023-11-10T23:37:49.537Z,98582.38
2023-11-10T23:40:16.867Z,98583.19
2023-11-10T23:42:44.248Z,98569.59
2023-11-10T23:45:11.983Z,98568.41
2023-11-10T23:47:39.564Z,98556.62
2023-11-10T23:50:08.037Z,98569.41
2023-11-10T23:52:36.173Z,98571.38
2023-11-10T23:55:04.411Z,98557.34
2023-11-10T23:57:33.391Z,98552.37
